sensor_id;sensor_type;location;lat;lon;timestamp;pressure;altitude;pressure_sealevel;temperature;humidity
46756;BME280;32506;52.826;-1.192;2022-08-21T00:01:23;100773.09;;;19.56;46.16
46756;BME280;32506;52.826;-1.192;2022-08-21T00:03:49;100775.53;;;19.52;46.21
46756;BME280;32506;52.826;-1.192;2022-08-21T00:06:15;100759.81;;;19.49;46.57
46756;BME280;32506;52.826;-1.192;2022-08-21T00:08:41;100760.88;;;19.48;46.19
46756;BME280;32506;52.826;-1.192;2022-08-21T00:11:07;100754.94;;;19.46;46.17
46756;BME280;32506;52.826;-1.192;2022-08-21T00:13:33;100754.38;;;19.44;46.39
46756;BME280;32506;52.826;-1.192;2022-08-21T00:15:59;100746.78;;;19.41;46.34
46756;BME280;32506;52.826;-1.192;2022-08-21T00:18:26;100740.81;;;19.39;46.82
46756;BME280;32506;52.826;-1.192;2022-08-21T00:20:51;100743.00;;;19.37;46.81
46756;BME280;32506;52.826;-1.192;2022-08-21T00:23:17;100743.25;;;19.35;47.01
46756;BME280;32506;52.826;-1.192;2022-08-21T00:25:44;100741.06;;;19.32;46.83
46756;BME280;32506;52.826;-1.192;2022-08-21T00:28:10;100740.53;;;19.30;46.80
46756;BME280;32506;52.826;-1.192;2022-08-21T00:30:36;100740.81;;;19.28;46.72
46756;BME280;32506;52.826;-1.192;2022-08-21T00:33:02;100738.63;;;19.25;46.87
46756;BME280;32506;52.826;-1.192;2022-08-21T00:35:33;100738.09;;;19.23;46.98
46756;BME280;32506;52.826;-1.192;2022-08-21T00:37:59;100741.06;;;19.22;47.14
46756;BME280;32506;52.826;-1.192;2022-08-21T00:40:36;100737.78;;;19.20;47.07
46756;BME280;32506;52.826;-1.192;2022-08-21T00:43:04;100734.78;;;19.16;47.54
46756;BME280;32506;52.826;-1.192;2022-08-21T00:45:31;100735.06;;;19.15;47.50
46756;BME280;32506;52.826;-1.192;2022-08-21T00:47:57;100731.81;;;19.13;47.26
46756;BME280;32506;52.826;-1.192;2022-08-21T00:50:26;100733.16;;;19.10;47.62
46756;BME280;32506;52.826;-1.192;2022-08-21T00:52:55;100729.09;;;19.07;47.47
46756;BME280;32506;52.826;-1.192;2022-08-21T00:55:22;100725.03;;;19.05;47.69
46756;BME280;32506;52.826;-1.192;2022-08-21T00:57:51;100719.31;;;19.01;47.78
46756;BME280;32506;52.826;-1.192;2022-08-21T01:00:22;100713.91;;;19.01;47.87
46756;BME280;32506;52.826;-1.192;2022-08-21T01:02:48;100714.16;;;19.00;47.90
46756;BME280;32506;52.826;-1.192;2022-08-21T01:05:14;100722.84;;;18.97;47.85
46756;BME280;32506;52.826;-1.192;2022-08-21T01:07:41;100719.28;;;18.96;47.72
46756;BME280;32506;52.826;-1.192;2022-08-21T01:10:07;100723.38;;;18.93;47.61
46756;BME280;32506;52.826;-1.192;2022-08-21T01:12:33;100725.50;;;18.91;47.69
46756;BME280;32506;52.826;-1.192;2022-08-21T01:15:02;100727.09;;;18.87;47.74
46756;BME280;32506;52.826;-1.192;2022-08-21T01:17:28;100726.28;;;18.87;47.77
46756;BME280;32506;52.826;-1.192;2022-08-21T01:19:58;100730.34;;;18.84;47.94
46756;BME280;32506;52.826;-1.192;2022-08-21T01:22:23;100724.38;;;18.82;47.87
46756;BME280;32506;52.826;-1.192;2022-08-21T01:24:49;100729.25;;;18.80;47.97
46756;BME280;32506;52.826;-1.192;2022-08-21T01:27:15;100731.38;;;18.78;48.09
46756;BME280;32506;52.826;-1.192;2022-08-21T01:30:04;100731.13;;;18.79;47.58
46756;BME280;32506;52.826;-1.192;2022-08-21T01:32:33;100737.59;;;18.73;47.61
46756;BME280;32506;52.826;-1.192;2022-08-21T01:34:59;100735.13;;;18.72;47.77
46756;BME280;32506;52.826;-1.192;2022-08-21T01:37:25;100740.00;;;18.70;47.56
46756;BME280;32506;52.826;-1.192;2022-08-21T01:39:51;100739.44;;;18.68;47.61
46756;BME280;32506;52.826;-1.192;2022-08-21T01:42:16;100733.78;;;18.64;47.62
46756;BME280;32506;52.826;-1.192;2022-08-21T01:44:42;100738.63;;;18.62;47.82
46756;BME280;32506;52.826;-1.192;2022-08-21T01:47:10;100734.53;;;18.59;47.92
46756;BME280;32506;52.826;-1.192;2022-08-21T01:49:36;100736.72;;;18.57;47.79
46756;BME280;32506;52.826;-1.192;2022-08-21T01:52:03;100738.84;;;18.55;48.02
46756;BME280;32506;52.826;-1.192;2022-08-21T01:54:29;100739.38;;;18.52;48.00
46756;BME280;32506;52.826;-1.192;2022-08-21T01:56:55;100751.00;;;18.53;48.28
46756;BME280;32506;52.826;-1.192;2022-08-21T01:59:23;100737.22;;;18.49;48.36
46756;BME280;32506;52.826;-1.192;2022-08-21T02:01:49;100742.84;;;18.48;48.11
46756;BME280;32506;52.826;-1.192;2022-08-21T02:04:15;100750.44;;;18.45;48.08
46756;BME280;32506;52.826;-1.192;2022-08-21T02:06:41;100746.38;;;18.43;48.41
46756;BME280;32506;52.826;-1.192;2022-08-21T02:09:08;100742.28;;;18.40;48.15
46756;BME280;32506;52.826;-1.192;2022-08-21T02:11:35;100749.03;;;18.38;48.40
46756;BME280;32506;52.826;-1.192;2022-08-21T02:14:01;100741.97;;;18.37;48.53
46756;BME280;32506;52.826;-1.192;2022-08-21T02:16:27;100737.09;;;18.34;48.79
46756;BME280;32506;52.826;-1.192;2022-08-21T02:18:53;100742.78;;;18.32;48.56
46756;BME280;32506;52.826;-1.192;2022-08-21T02:21:19;100744.13;;;18.30;48.74
46756;BME280;32506;52.826;-1.192;2022-08-21T02:23:45;100745.19;;;18.28;48.80
46756;BME280;32506;52.826;-1.192;2022-08-21T02:26:11;100745.72;;;18.25;48.83
46756;BME280;32506;52.826;-1.192;2022-08-21T02:28:37;100745.97;;;18.24;48.91
46756;BME280;32506;52.826;-1.192;2022-08-21T02:31:04;100743.53;;;18.22;49.00
46756;BME280;32506;52.826;-1.192;2022-08-21T02:33:30;100747.56;;;18.20;48.87
46756;BME280;32506;52.826;-1.192;2022-08-21T02:35:55;100741.59;;;18.18;48.53
46756;BME280;32506;52.826;-1.192;2022-08-21T02:38:30;100752.69;;;18.16;48.19
46756;BME280;32506;52.826;-1.192;2022-08-21T02:40:56;100745.91;;;18.14;48.20
46756;BME280;32506;52.826;-1.192;2022-08-21T02:43:25;100742.38;;;18.13;48.40
46756;BME280;32506;52.826;-1.192;2022-08-21T02:45:52;100742.09;;;18.09;48.96
46756;BME280;32506;52.826;-1.192;2022-08-21T02:48:21;100749.63;;;18.07;49.25
46756;BME280;32506;52.826;-1.192;2022-08-21T02:50:55;100750.72;;;18.06;49.59
46756;BME280;32506;52.826;-1.192;2022-08-21T02:53:21;100737.47;;;18.05;49.69
46756;BME280;32506;52.826;-1.192;2022-08-21T02:55:48;100735.25;;;18.02;49.72
46756;BME280;32506;52.826;-1.192;2022-08-21T02:58:21;100729.03;;;18.01;50.08
46756;BME280;32506;52.826;-1.192;2022-08-21T03:00:47;100728.22;;;18.01;49.78
46756;BME280;32506;52.826;-1.192;2022-08-21T03:03:13;100723.06;;;17.99;49.62
46756;BME280;32506;52.826;-1.192;2022-08-21T03:05:40;100717.91;;;17.98;49.70
46756;BME280;32506;52.826;-1.192;2022-08-21T03:08:07;100725.22;;;17.97;50.24
46756;BME280;32506;52.826;-1.192;2022-08-21T03:10:37;100715.47;;;17.96;50.08
46756;BME280;32506;52.826;-1.192;2022-08-21T03:13:03;100721.16;;;17.94;49.90
46756;BME280;32506;52.826;-1.192;2022-08-21T03:15:29;100710.59;;;17.93;49.75
46756;BME280;32506;52.826;-1.192;2022-08-21T03:17:55;100727.88;;;17.92;49.79
46756;BME280;32506;52.826;-1.192;2022-08-21T03:20:25;100714.59;;;17.90;49.84
46756;BME280;32506;52.826;-1.192;2022-08-21T03:22:52;100727.28;;;17.90;49.90
46756;BME280;32506;52.826;-1.192;2022-08-21T03:25:19;100723.22;;;17.87;49.92
46756;BME280;32506;52.826;-1.192;2022-08-21T03:27:45;100721.59;;;17.86;49.98
46756;BME280;32506;52.826;-1.192;2022-08-21T03:30:12;100712.91;;;17.84;50.03
46756;BME280;32506;52.826;-1.192;2022-08-21T03:32:38;100713.19;;;17.83;50.18
46756;BME280;32506;52.826;-1.192;2022-08-21T03:35:04;100710.47;;;17.83;49.84
46756;BME280;32506;52.826;-1.192;2022-08-21T03:37:29;100709.09;;;17.80;50.09
46756;BME280;32506;52.826;-1.192;2022-08-21T03:39:55;100712.88;;;17.79;50.33
46756;BME280;32506;52.826;-1.192;2022-08-21T03:42:21;100704.50;;;17.75;50.24
46756;BME280;32506;52.826;-1.192;2022-08-21T03:44:46;100709.06;;;17.75;49.93
46756;BME280;32506;52.826;-1.192;2022-08-21T03:47:12;100707.44;;;17.74;50.21
46756;BME280;32506;52.826;-1.192;2022-08-21T03:49:37;100714.19;;;17.71;50.13
46756;BME280;32506;52.826;-1.192;2022-08-21T03:52:04;100709.00;;;17.70;49.91
46756;BME280;32506;52.826;-1.192;2022-08-21T03:54:30;100700.34;;;17.68;50.23
46756;BME280;32506;52.826;-1.192;2022-08-21T03:56:55;100705.19;;;17.66;50.13
46756;BME280;32506;52.826;-1.192;2022-08-21T03:59:21;100703.59;;;17.65;49.75
46756;BME280;32506;52.826;-1.192;2022-08-21T04:01:53;100708.41;;;17.63;49.77
46756;BME280;32506;52.826;-1.192;2022-08-21T04:04:19;100706.78;;;17.61;49.97
46756;BME280;32506;52.826;-1.192;2022-08-21T04:06:45;100708.94;;;17.59;49.88
46756;BME280;32506;52.826;-1.192;2022-08-21T04:09:11;100707.56;;;17.57;49.99
46756;BME280;32506;52.826;-1.192;2022-08-21T04:11:36;100710.53;;;17.55;49.95
46756;BME280;32506;52.826;-1.192;2022-08-21T04:14:02;100705.38;;;17.54;49.96
46756;BME280;32506;52.826;-1.192;2022-08-21T04:16:28;100707.50;;;17.52;49.92
46756;BME280;32506;52.826;-1.192;2022-08-21T04:18:53;100707.78;;;17.50;50.36
46756;BME280;32506;52.826;-1.192;2022-08-21T04:21:19;100701.00;;;17.48;50.41
46756;BME280;32506;52.826;-1.192;2022-08-21T04:23:44;100705.59;;;17.47;50.12
46756;BME280;32506;52.826;-1.192;2022-08-21T04:26:10;100707.72;;;17.45;50.51
46756;BME280;32506;52.826;-1.192;2022-08-21T04:28:36;100712.56;;;17.43;50.47
46756;BME280;32506;52.826;-1.192;2022-08-21T04:31:01;100708.78;;;17.44;50.39
46756;BME280;32506;52.826;-1.192;2022-08-21T04:33:27;100711.19;;;17.40;50.34
46756;BME280;32506;52.826;-1.192;2022-08-21T04:35:52;100719.53;;;17.39;50.47
46756;BME280;32506;52.826;-1.192;2022-08-21T04:38:18;100713.59;;;17.37;50.23
46756;BME280;32506;52.826;-1.192;2022-08-21T04:40:44;100714.91;;;17.34;50.55
46756;BME280;32506;52.826;-1.192;2022-08-21T04:43:11;100718.69;;;17.33;50.24
46756;BME280;32506;52.826;-1.192;2022-08-21T04:45:40;100723.28;;;17.33;50.46
46756;BME280;32506;52.826;-1.192;2022-08-21T04:48:08;100720.00;;;17.31;50.21
46756;BME280;32506;52.826;-1.192;2022-08-21T04:50:50;100726.47;;;17.30;50.22
46756;BME280;32506;52.826;-1.192;2022-08-21T04:53:22;100724.28;;;17.26;50.14
46756;BME280;32506;52.826;-1.192;2022-08-21T04:55:50;100730.75;;;17.25;50.10
46756;BME280;32506;52.826;-1.192;2022-08-21T04:58:18;100729.13;;;17.24;49.95
46756;BME280;32506;52.826;-1.192;2022-08-21T05:00:46;100742.06;;;17.22;49.73
46756;BME280;32506;52.826;-1.192;2022-08-21T05:03:14;100742.56;;;17.19;49.85
46756;BME280;32506;52.826;-1.192;2022-08-21T05:05:41;100744.44;;;17.19;49.59
46756;BME280;32506;52.826;-1.192;2022-08-21T05:08:12;100745.53;;;17.18;49.63
46756;BME280;32506;52.826;-1.192;2022-08-21T05:10:38;100743.09;;;17.16;49.53
46756;BME280;32506;52.826;-1.192;2022-08-21T05:13:05;100745.22;;;17.14;49.45
46756;BME280;32506;52.826;-1.192;2022-08-21T05:15:32;100754.38;;;17.13;49.52
46756;BME280;32506;52.826;-1.192;2022-08-21T05:17:57;100754.63;;;17.11;49.73
46756;BME280;32506;52.826;-1.192;2022-08-21T05:20:23;100760.28;;;17.10;49.75
46756;BME280;32506;52.826;-1.192;2022-08-21T05:22:48;100764.06;;;17.09;50.01
46756;BME280;32506;52.826;-1.192;2022-08-21T05:25:14;100762.41;;;17.08;49.91
46756;BME280;32506;52.826;-1.192;2022-08-21T05:27:39;100761.88;;;17.06;49.88
46756;BME280;32506;52.826;-1.192;2022-08-21T05:30:06;100768.31;;;17.05;49.98
46756;BME280;32506;52.826;-1.192;2022-08-21T05:32:33;100770.22;;;17.04;49.80
46756;BME280;32506;52.826;-1.192;2022-08-21T05:34:59;100771.28;;;17.03;49.98
46756;BME280;32506;52.826;-1.192;2022-08-21T05:37:24;100773.19;;;17.03;49.76
46756;BME280;32506;52.826;-1.192;2022-08-21T05:39:50;100782.34;;;17.02;49.74
46756;BME280;32506;52.826;-1.192;2022-08-21T05:42:15;100792.06;;;17.03;49.79
46756;BME280;32506;52.826;-1.192;2022-08-21T05:44:41;100793.13;;;17.02;49.88
46756;BME280;32506;52.826;-1.192;2022-08-21T05:47:09;100797.69;;;17.01;50.53
46756;BME280;32506;52.826;-1.192;2022-08-21T05:49:35;100796.91;;;17.01;50.44
46756;BME280;32506;52.826;-1.192;2022-08-21T05:52:01;100800.66;;;17.00;50.43
46756;BME280;32506;52.826;-1.192;2022-08-21T05:54:27;100797.94;;;17.00;50.61
46756;BME280;32506;52.826;-1.192;2022-08-21T05:56:53;100796.91;;;17.01;50.88
46756;BME280;32506;52.826;-1.192;2022-08-21T05:59:19;100793.13;;;17.02;50.72
46756;BME280;32506;52.826;-1.192;2022-08-21T06:01:45;100789.03;;;16.99;51.08
46756;BME280;32506;52.826;-1.192;2022-08-21T06:04:11;100790.69;;;17.00;51.38
46756;BME280;32506;52.826;-1.192;2022-08-21T06:06:37;100788.78;;;17.01;51.48
46756;BME280;32506;52.826;-1.192;2022-08-21T06:09:03;100785.84;;;17.02;51.73
46756;BME280;32506;52.826;-1.192;2022-08-21T06:11:29;100791.25;;;17.02;51.49
46756;BME280;32506;52.826;-1.192;2022-08-21T06:13:55;100786.69;;;17.03;51.87
46756;BME280;32506;52.826;-1.192;2022-08-21T06:16:20;100794.53;;;17.04;52.15
46756;BME280;32506;52.826;-1.192;2022-08-21T06:18:48;100792.63;;;17.05;51.99
46756;BME280;32506;52.826;-1.192;2022-08-21T06:21:14;100794.53;;;17.04;51.56
46756;BME280;32506;52.826;-1.192;2022-08-21T06:23:40;100791.81;;;17.04;51.85
46756;BME280;32506;52.826;-1.192;2022-08-21T06:26:07;100789.66;;;17.06;51.46
46756;BME280;32506;52.826;-1.192;2022-08-21T06:28:34;100802.09;;;17.07;51.56
46756;BME280;32506;52.826;-1.192;2022-08-21T06:31:00;100799.41;;;17.07;51.58
46756;BME280;32506;52.826;-1.192;2022-08-21T06:33:26;100795.66;;;17.08;51.04
46756;BME280;32506;52.826;-1.192;2022-08-21T06:35:52;100793.75;;;17.09;50.91
46756;BME280;32506;52.826;-1.192;2022-08-21T06:38:17;100804.31;;;17.10;50.95
46756;BME280;32506;52.826;-1.192;2022-08-21T06:40:43;100803.25;;;17.11;50.96
46756;BME280;32506;52.826;-1.192;2022-08-21T06:43:11;100797.59;;;17.13;51.13
46756;BME280;32506;52.826;-1.192;2022-08-21T06:45:37;100806.50;;;17.14;50.85
46756;BME280;32506;52.826;-1.192;2022-08-21T06:48:03;100807.06;;;17.16;51.16
46756;BME280;32506;52.826;-1.192;2022-08-21T06:50:29;100804.94;;;17.18;51.09
46756;BME280;32506;52.826;-1.192;2022-08-21T06:52:59;100804.94;;;17.18;51.49
46756;BME280;32506;52.826;-1.192;2022-08-21T06:55:25;100802.25;;;17.18;51.00
46756;BME280;32506;52.826;-1.192;2022-08-21T06:57:51;100803.63;;;17.20;51.26
46756;BME280;32506;52.826;-1.192;2022-08-21T07:00:16;100801.72;;;17.21;51.15
46756;BME280;32506;52.826;-1.192;2022-08-21T07:02:41;100792.31;;;17.23;50.54
46756;BME280;32506;52.826;-1.192;2022-08-21T07:05:07;100805.56;;;17.25;50.53
46756;BME280;32506;52.826;-1.192;2022-08-21T07:07:33;100805.31;;;17.26;50.33
46756;BME280;32506;52.826;-1.192;2022-08-21T07:09:58;100796.94;;;17.28;50.20
46756;BME280;32506;52.826;-1.192;2022-08-21T07:12:23;100795.63;;;17.31;50.58
46756;BME280;32506;52.826;-1.192;2022-08-21T07:14:51;100797.25;;;17.32;50.84
46756;BME280;32506;52.826;-1.192;2022-08-21T07:17:17;100785.94;;;17.35;51.55
46756;BME280;32506;52.826;-1.192;2022-08-21T07:19:42;100790.28;;;17.36;51.16
46756;BME280;32506;52.826;-1.192;2022-08-21T07:22:08;100795.19;;;17.39;51.35
46756;BME280;32506;52.826;-1.192;2022-08-21T07:24:33;100797.38;;;17.42;51.90
46756;BME280;32506;52.826;-1.192;2022-08-21T07:26:59;100794.16;;;17.45;51.84
46756;BME280;32506;52.826;-1.192;2022-08-21T07:29:24;100792.03;;;17.47;51.84
46756;BME280;32506;52.826;-1.192;2022-08-21T07:31:49;100785.28;;;17.50;51.91
46756;BME280;32506;52.826;-1.192;2022-08-21T07:34:15;100781.28;;;17.52;51.84
46756;BME280;32506;52.826;-1.192;2022-08-21T07:36:40;100783.47;;;17.55;52.32
46756;BME280;32506;52.826;-1.192;2022-08-21T07:39:06;100782.16;;;17.58;52.73
46756;BME280;32506;52.826;-1.192;2022-08-21T07:41:31;100785.97;;;17.62;52.57
46756;BME280;32506;52.826;-1.192;2022-08-21T07:43:58;100787.91;;;17.67;52.87
46756;BME280;32506;52.826;-1.192;2022-08-21T07:46:24;100783.88;;;17.69;52.81
46756;BME280;32506;52.826;-1.192;2022-08-21T07:48:50;100783.94;;;17.74;52.93
46756;BME280;32506;52.826;-1.192;2022-08-21T07:51:24;100793.97;;;17.79;52.65
46756;BME280;32506;52.826;-1.192;2022-08-21T07:53:51;100797.56;;;17.85;53.07
46756;BME280;32506;52.826;-1.192;2022-08-21T07:56:18;100805.69;;;17.90;53.38
46756;BME280;32506;52.826;-1.192;2022-08-21T07:58:44;100804.97;;;17.94;53.14
46756;BME280;32506;52.826;-1.192;2022-08-21T08:01:10;100805.81;;;18.00;53.24
46756;BME280;32506;52.826;-1.192;2022-08-21T08:03:35;100811.81;;;18.07;53.67
46756;BME280;32506;52.826;-1.192;2022-08-21T08:06:01;100808.09;;;18.14;53.62
46756;BME280;32506;52.826;-1.192;2022-08-21T08:08:27;100806.25;;;18.19;54.22
46756;BME280;32506;52.826;-1.192;2022-08-21T08:10:53;100814.72;;;18.28;54.21
46756;BME280;32506;52.826;-1.192;2022-08-21T08:13:19;100818.28;;;18.34;54.26
46756;BME280;32506;52.826;-1.192;2022-08-21T08:15:45;100816.16;;;18.41;54.58
46756;BME280;32506;52.826;-1.192;2022-08-21T08:18:10;100815.69;;;18.49;54.54
46756;BME280;32506;52.826;-1.192;2022-08-21T08:20:36;100813.56;;;18.56;54.18
46756;BME280;32506;52.826;-1.192;2022-08-21T08:23:02;100814.13;;;18.64;54.31
46756;BME280;32506;52.826;-1.192;2022-08-21T08:25:28;100813.91;;;18.70;54.11
46756;BME280;32506;52.826;-1.192;2022-08-21T08:27:53;100825.34;;;18.77;54.11
46756;BME280;32506;52.826;-1.192;2022-08-21T08:30:19;100815.88;;;18.85;54.24
46756;BME280;32506;52.826;-1.192;2022-08-21T08:32:46;100808.38;;;18.92;54.06
46756;BME280;32506;52.826;-1.192;2022-08-21T08:35:12;100813.31;;;19.01;54.33
46756;BME280;32506;52.826;-1.192;2022-08-21T08:37:38;100814.44;;;19.10;54.11
46756;BME280;32506;52.826;-1.192;2022-08-21T08:40:09;100804.16;;;19.17;54.00
46756;BME280;32506;52.826;-1.192;2022-08-21T08:42:36;100801.75;;;19.26;53.91
46756;BME280;32506;52.826;-1.192;2022-08-21T08:47:31;100810.75;;;19.47;54.32
46756;BME280;32506;52.826;-1.192;2022-08-21T08:50:07;100810.25;;;19.60;54.27
46756;BME280;32506;52.826;-1.192;2022-08-21T08:52:43;100818.13;;;19.72;54.10
46756;BME280;32506;52.826;-1.192;2022-08-21T08:55:17;100824.16;;;19.85;54.33
46756;BME280;32506;52.826;-1.192;2022-08-21T08:57:46;100814.16;;;19.95;54.04
46756;BME280;32506;52.826;-1.192;2022-08-21T09:00:15;100816.84;;;20.06;53.83
46756;BME280;32506;52.826;-1.192;2022-08-21T09:02:43;100813.06;;;20.17;53.59
46756;BME280;32506;52.826;-1.192;2022-08-21T09:05:27;100811.97;;;20.28;53.41
46756;BME280;32506;52.826;-1.192;2022-08-21T09:08:00;100820.91;;;20.39;53.21
46756;BME280;32506;52.826;-1.192;2022-08-21T09:13:24;100818.44;;;20.63;52.93
46756;BME280;32506;52.826;-1.192;2022-08-21T09:16:10;100818.44;;;20.74;52.82
46756;BME280;32506;52.826;-1.192;2022-08-21T09:21:52;100820.00;;;21.01;52.35
46756;BME280;32506;52.826;-1.192;2022-08-21T09:27:17;100818.25;;;21.25;52.23
46756;BME280;32506;52.826;-1.192;2022-08-21T09:29:47;100808.69;;;21.38;52.09
46756;BME280;32506;52.826;-1.192;2022-08-21T09:32:19;100811.59;;;21.52;51.97
46756;BME280;32506;52.826;-1.192;2022-08-21T09:35:18;100818.59;;;21.69;52.09
46756;BME280;32506;52.826;-1.192;2022-08-21T09:37:52;100815.53;;;21.81;51.88
46756;BME280;32506;52.826;-1.192;2022-08-21T09:43:20;100814.28;;;22.02;51.48
46756;BME280;32506;52.826;-1.192;2022-08-21T09:45:47;100815.84;;;22.13;50.94
46756;BME280;32506;52.826;-1.192;2022-08-21T09:50:42;100820.28;;;22.34;50.82
46756;BME280;32506;52.826;-1.192;2022-08-21T09:55:57;100823.13;;;22.53;50.37
46756;BME280;32506;52.826;-1.192;2022-08-21T09:58:47;100822.78;;;22.59;50.52
46756;BME280;32506;52.826;-1.192;2022-08-21T10:01:19;100821.06;;;22.69;49.78
46756;BME280;32506;52.826;-1.192;2022-08-21T10:03:45;100817.41;;;22.78;49.72
46756;BME280;32506;52.826;-1.192;2022-08-21T10:06:23;100811.84;;;22.89;49.36
46756;BME280;32506;52.826;-1.192;2022-08-21T10:08:49;100814.47;;;22.99;49.38
46756;BME280;32506;52.826;-1.192;2022-08-21T10:11:16;100815.97;;;23.10;48.88
46756;BME280;32506;52.826;-1.192;2022-08-21T10:16:44;100817.59;;;23.36;48.78
46756;BME280;32506;52.826;-1.192;2022-08-21T10:25:14;100824.81;;;23.84;48.53
46756;BME280;32506;52.826;-1.192;2022-08-21T10:30:19;100818.38;;;24.12;48.76
46756;BME280;32506;52.826;-1.192;2022-08-21T10:32:52;100812.16;;;24.26;48.55
46756;BME280;32506;52.826;-1.192;2022-08-21T10:35:30;100803.69;;;24.41;48.16
46756;BME280;32506;52.826;-1.192;2022-08-21T10:41:37;100803.34;;;24.76;48.11
46756;BME280;32506;52.826;-1.192;2022-08-21T10:49:25;100806.94;;;25.27;47.08
46756;BME280;32506;52.826;-1.192;2022-08-21T10:57:33;100820.63;;;25.77;45.79
46756;BME280;32506;52.826;-1.192;2022-08-21T11:00:07;100820.56;;;25.91;45.85
46756;BME280;32506;52.826;-1.192;2022-08-21T11:02:53;100818.09;;;26.04;45.74
46756;BME280;32506;52.826;-1.192;2022-08-21T11:05:27;100825.75;;;26.16;45.35
46756;BME280;32506;52.826;-1.192;2022-08-21T11:08:02;100819.50;;;26.24;44.63
46756;BME280;32506;52.826;-1.192;2022-08-21T11:10:47;100816.81;;;26.33;45.07
46756;BME280;32506;52.826;-1.192;2022-08-21T11:13:21;100814.13;;;26.41;44.62
46756;BME280;32506;52.826;-1.192;2022-08-21T11:18:35;100822.41;;;26.59;43.63
46756;BME280;32506;52.826;-1.192;2022-08-21T11:21:56;100820.06;;;26.66;43.61
46756;BME280;32506;52.826;-1.192;2022-08-21T11:24:33;100813.81;;;26.74;43.39
46756;BME280;32506;52.826;-1.192;2022-08-21T11:29:51;100822.25;;;26.87;42.53
46756;BME280;32506;52.826;-1.192;2022-08-21T11:40:47;100805.72;;;27.18;42.38
46756;BME280;32506;52.826;-1.192;2022-08-21T11:45:56;100814.13;;;27.30;42.19
46756;BME280;32506;52.826;-1.192;2022-08-21T11:48:46;100818.34;;;27.37;41.83
46756;BME280;32506;52.826;-1.192;2022-08-21T11:51:19;100821.59;;;27.39;41.31
46756;BME280;32506;52.826;-1.192;2022-08-21T11:53:49;100819.81;;;27.43;40.94
46756;BME280;32506;52.826;-1.192;2022-08-21T11:56:28;100815.63;;;27.45;40.45
46756;BME280;32506;52.826;-1.192;2022-08-21T11:58:59;100814.50;;;27.46;40.74
46756;BME280;32506;52.826;-1.192;2022-08-21T12:01:34;100824.84;;;27.50;40.38
46756;BME280;32506;52.826;-1.192;2022-08-21T12:04:08;100814.03;;;27.53;40.10
46756;BME280;32506;52.826;-1.192;2022-08-21T12:06:40;100806.75;;;27.57;40.46
46756;BME280;32506;52.826;-1.192;2022-08-21T12:09:08;100805.78;;;27.62;40.54
46756;BME280;32506;52.826;-1.192;2022-08-21T12:11:48;100805.28;;;27.69;40.09
46756;BME280;32506;52.826;-1.192;2022-08-21T12:14:16;100801.59;;;27.73;40.19
46756;BME280;32506;52.826;-1.192;2022-08-21T12:16:48;100808.50;;;27.79;39.92
46756;BME280;32506;52.826;-1.192;2022-08-21T12:26:56;100805.78;;;28.06;40.22
46756;BME280;32506;52.826;-1.192;2022-08-21T12:31:57;100815.59;;;28.16;39.92
46756;BME280;32506;52.826;-1.192;2022-08-21T12:34:32;100815.75;;;28.19;39.38
46756;BME280;32506;52.826;-1.192;2022-08-21T12:37:34;100809.28;;;28.24;39.37
46756;BME280;32506;52.826;-1.192;2022-08-21T12:40:04;100802.97;;;28.23;38.60
46756;BME280;32506;52.826;-1.192;2022-08-21T12:42:45;100803.94;;;28.27;38.49
46756;BME280;32506;52.826;-1.192;2022-08-21T12:45:36;100807.31;;;28.33;38.52
46756;BME280;32506;52.826;-1.192;2022-08-21T12:48:23;100808.59;;;28.36;38.35
46756;BME280;32506;52.826;-1.192;2022-08-21T12:50:51;100805.19;;;28.39;38.30
46756;BME280;32506;52.826;-1.192;2022-08-21T12:53:51;100802.75;;;28.46;38.11
46756;BME280;32506;52.826;-1.192;2022-08-21T12:56:24;100806.78;;;28.49;38.39
46756;BME280;32506;52.826;-1.192;2022-08-21T12:58:56;100802.84;;;28.58;38.40
46756;BME280;32506;52.826;-1.192;2022-08-21T13:01:32;100804.47;;;28.68;38.73
46756;BME280;32506;52.826;-1.192;2022-08-21T13:04:02;100806.50;;;28.80;38.94
46756;BME280;32506;52.826;-1.192;2022-08-21T13:06:32;100810.16;;;28.93;39.06
46756;BME280;32506;52.826;-1.192;2022-08-21T13:09:07;100811.53;;;29.08;38.81
46756;BME280;32506;52.826;-1.192;2022-08-21T13:11:35;100808.06;;;29.20;38.31
46756;BME280;32506;52.826;-1.192;2022-08-21T13:14:02;100808.50;;;29.31;38.36
46756;BME280;32506;52.826;-1.192;2022-08-21T13:16:29;100814.41;;;29.41;37.84
46756;BME280;32506;52.826;-1.192;2022-08-21T13:19:02;100815.16;;;29.51;37.40
46756;BME280;32506;52.826;-1.192;2022-08-21T13:21:50;100820.56;;;29.59;37.37
46756;BME280;32506;52.826;-1.192;2022-08-21T13:24:30;100815.81;;;29.69;37.41
46756;BME280;32506;52.826;-1.192;2022-08-21T13:26:58;100817.22;;;29.75;37.28
46756;BME280;32506;52.826;-1.192;2022-08-21T13:29:28;100811.97;;;29.82;37.00
46756;BME280;32506;52.826;-1.192;2022-08-21T13:31:55;100815.00;;;29.89;37.36
46756;BME280;32506;52.826;-1.192;2022-08-21T13:34:30;100810.91;;;29.95;36.91
46756;BME280;32506;52.826;-1.192;2022-08-21T13:37:05;100805.75;;;30.06;36.80
46756;BME280;32506;52.826;-1.192;2022-08-21T13:39:52;100811.19;;;30.15;37.13
46756;BME280;32506;52.826;-1.192;2022-08-21T13:42:20;100806.72;;;30.23;36.78
46756;BME280;32506;52.826;-1.192;2022-08-21T13:44:55;100810.88;;;30.29;36.84
46756;BME280;32506;52.826;-1.192;2022-08-21T13:47:32;100812.72;;;30.37;36.65
46756;BME280;32506;52.826;-1.192;2022-08-21T13:50:00;100809.75;;;30.42;36.57
46756;BME280;32506;52.826;-1.192;2022-08-21T13:52:26;100805.66;;;30.49;36.17
46756;BME280;32506;52.826;-1.192;2022-08-21T13:55:07;100808.97;;;30.54;35.96
46756;BME280;32506;52.826;-1.192;2022-08-21T13:57:34;100799.22;;;30.57;36.35
46756;BME280;32506;52.826;-1.192;2022-08-21T14:00:13;100800.94;;;30.61;35.82
46756;BME280;32506;52.826;-1.192;2022-08-21T14:02:41;100792.31;;;30.63;35.92